Terminal Aerodrome Forecast
Issued by NWS Quad Cities IA IL

Home | Current Version | Previous Version | Text Only | Print | Product List | Glossary On
Versions: 1 2 3 4 5 6 7 8 9 10 11 12 13
000
FTUS43 KDVN 200500
TAFDBQ
TAF
KDBQ 200520Z 2006/2106 16011KT P6SM SCT100 BKN250
     FM201300 20010G16KT P6SM BKN100
     FM202300 18008KT P6SM BKN080=

USA.gov is the U.S. government's official web portal to all federal, state and local government web resources and services.